Terminal Aerodrome Forecast
Issued by NWS

Home | Current Version | Previous Version | Text Only | Print | Product List | Glossary On
Versions: 1 2 3 4 5 6 7 8 9 10 11 12 13 14 15 16 17 18 19 20 21 22 23 24 25 26
000
FTUS43 KBIS 142321
TAFMOT
TAF
KMOT 142321Z 1500/1524 13012KT P6SM SCT060 BKN150
     FM150300 13006KT P6SM SCT060 BKN150
     FM151200 15004KT P6SM VCSH SCT030 OVC060
     FM151500 15005KT P6SM SHRA OVC030
     FM151900 13008KT P6SM SHRA OVC015
     FM152200 13008KT P6SM OVC020=

USA.gov is the U.S. government's official web portal to all federal, state and local government web resources and services.